TAX01MS LPMA-TNCM
Flight info
| Callsign | TAX01MS |
|---|---|
| Flight time | 6h 15m |
| Altitude | 40000 |
| Route | NIDUL DCT 3220N DCT 3225N DCT 3130N/M081F400 DCT 3035N DCT 2940N DCT 2745N DCT 2550N DCT 2355N DCT RKDIA DCT OBIKE DCT NEYDU |
| Aircraft | A333/H-SDE3GHIJ2J3J5M1RVWXY/LB2D1 |
Departure
| Time | 2026-05-05 09:21 |
|---|---|
| Airport | Cristiano Ronaldo International Airport (LPMA) |
Arrival
| Time | 2026-05-05 15:37 |
|---|---|
| Airport | Princess Juliana International Airport (TNCM) |
| Time | Latitude | Longitude | Altitude | Speed | Heading |
|---|---|---|---|---|---|
| 2026-05-05 09:02 | 32.69395 | -16.77641 | 179 ft | 0 kts | 138° |
| 2026-05-05 09:15 | 32.69406 | -16.77652 | 180 ft | 2 kts | 140° |
| 2026-05-05 09:16 | 32.69419 | -16.77664 | 180 ft | 2 kts | 148° |
| 2026-05-05 09:16 | 32.69434 | -16.77672 | 180 ft | 2 kts | 193° |
| 2026-05-05 09:16 | 32.69446 | -16.77664 | 180 ft | 1 kts | 224° |
| 2026-05-05 09:16 | 32.69449 | -16.77661 | 180 ft | 0 kts | 225° |
| 2026-05-05 09:18 | 32.69448 | -16.77662 | 180 ft | 1 kts | 225° |
| 2026-05-05 09:18 | 32.69400 | -16.77720 | 180 ft | 19 kts | 225° |
| 2026-05-05 09:19 | 32.69301 | -16.77858 | 180 ft | 23 kts | 248° |
| 2026-05-05 09:19 | 32.69269 | -16.78049 | 180 ft | 23 kts | 236° |
| 2026-05-05 09:19 | 32.69156 | -16.78187 | 180 ft | 23 kts | 225° |
| 2026-05-05 09:19 | 32.69041 | -16.78320 | 180 ft | 23 kts | 224° |
| 2026-05-05 09:20 | 32.68937 | -16.78397 | 180 ft | 12 kts | 197° |
| 2026-05-05 09:20 | 32.68894 | -16.78459 | 180 ft | 8 kts | 292° |
| 2026-05-05 09:20 | 32.68921 | -16.78456 | 180 ft | 4 kts | 36° |
| 2026-05-05 09:20 | 32.68947 | -16.78429 | 180 ft | 8 kts | 43° |
| 2026-05-05 09:21 | 32.69103 | -16.78248 | 180 ft | 61 kts | 45° |
| 2026-05-05 09:21 | 32.69546 | -16.77730 | 180 ft | 116 kts | 45° |
| 2026-05-05 09:21 | 32.70233 | -16.76932 | 335 ft | 151 kts | 43° |
| 2026-05-05 09:21 | 32.70939 | -16.75993 | 971 ft | 153 kts | 63° |
| 2026-05-05 09:22 | 32.70914 | -16.74767 | 1430 ft | 162 kts | 121° |
| 2026-05-05 09:22 | 32.70039 | -16.73825 | 1701 ft | 183 kts | 154° |
| 2026-05-05 09:22 | 32.68694 | -16.73820 | 1959 ft | 214 kts | 199° |
| 2026-05-05 09:22 | 32.67306 | -16.74746 | 2184 ft | 241 kts | 211° |
| 2026-05-05 09:23 | 32.65855 | -16.75804 | 2608 ft | 253 kts | 207° |
| 2026-05-05 09:23 | 32.64293 | -16.76815 | 3215 ft | 258 kts | 206° |
| 2026-05-05 09:23 | 32.62698 | -16.77820 | 3904 ft | 261 kts | 209° |
| 2026-05-05 09:23 | 32.61361 | -16.79298 | 4598 ft | 268 kts | 235° |
| 2026-05-05 09:24 | 32.60635 | -16.81342 | 5336 ft | 271 kts | 254° |
| 2026-05-05 09:24 | 32.60347 | -16.83548 | 6112 ft | 272 kts | 266° |
| 2026-05-05 09:24 | 32.60456 | -16.85824 | 6786 ft | 282 kts | 275° |
| 2026-05-05 09:24 | 32.60861 | -16.88098 | 7613 ft | 281 kts | 289° |
| 2026-05-05 09:25 | 32.61533 | -16.90280 | 8384 ft | 282 kts | 288° |
| 2026-05-05 09:25 | 32.62127 | -16.92521 | 9068 ft | 286 kts | 286° |
| 2026-05-05 09:25 | 32.62699 | -16.94761 | 9835 ft | 288 kts | 285° |
| 2026-05-05 09:25 | 32.63296 | -16.97073 | 10440 ft | 299 kts | 286° |
| 2026-05-05 09:26 | 32.63920 | -16.99507 | 10700 ft | 317 kts | 286° |
| 2026-05-05 09:26 | 32.64579 | -17.02089 | 10953 ft | 335 kts | 286° |
| 2026-05-05 09:26 | 32.65271 | -17.04790 | 11433 ft | 344 kts | 286° |
| 2026-05-05 09:26 | 32.65953 | -17.07528 | 12110 ft | 348 kts | 286° |
| 2026-05-05 09:27 | 32.66627 | -17.10256 | 12853 ft | 349 kts | 286° |
| 2026-05-05 09:27 | 32.67316 | -17.13033 | 13534 ft | 352 kts | 286° |
| 2026-05-05 09:27 | 32.68012 | -17.15836 | 14177 ft | 354 kts | 286° |
| 2026-05-05 09:27 | 32.68718 | -17.18644 | 14868 ft | 354 kts | 286° |
| 2026-05-05 09:28 | 32.69426 | -17.21472 | 15380 ft | 359 kts | 286° |
| 2026-05-05 09:28 | 32.70143 | -17.24327 | 16027 ft | 360 kts | 286° |
| 2026-05-05 09:28 | 32.70867 | -17.27180 | 16677 ft | 362 kts | 286° |
| 2026-05-05 09:28 | 32.71596 | -17.30067 | 17203 ft | 367 kts | 286° |
| 2026-05-05 09:29 | 32.72325 | -17.32963 | 17738 ft | 371 kts | 286° |
| 2026-05-05 09:29 | 32.72924 | -17.35963 | 18336 ft | 373 kts | 278° |
| 2026-05-05 09:29 | 32.73096 | -17.39049 | 18827 ft | 376 kts | 271° |
| 2026-05-05 09:29 | 32.73066 | -17.42168 | 19382 ft | 377 kts | 268° |
| 2026-05-05 09:30 | 32.72922 | -17.45275 | 19946 ft | 378 kts | 266° |
| 2026-05-05 09:30 | 32.72716 | -17.48414 | 20392 ft | 382 kts | 265° |
| 2026-05-05 09:30 | 32.72485 | -17.51535 | 20846 ft | 386 kts | 265° |
| 2026-05-05 09:30 | 32.72242 | -17.54764 | 21342 ft | 388 kts | 265° |
| 2026-05-05 09:31 | 32.72007 | -17.57946 | 21850 ft | 390 kts | 265° |
| 2026-05-05 09:31 | 32.71776 | -17.61173 | 22317 ft | 393 kts | 265° |
| 2026-05-05 09:31 | 32.71550 | -17.64421 | 22756 ft | 396 kts | 265° |
| 2026-05-05 09:31 | 32.71328 | -17.67660 | 23186 ft | 399 kts | 265° |
| 2026-05-05 09:32 | 32.71104 | -17.70962 | 23652 ft | 401 kts | 265° |
| 2026-05-05 09:32 | 32.70878 | -17.74287 | 24043 ft | 403 kts | 265° |
| 2026-05-05 09:32 | 32.70652 | -17.77617 | 24485 ft | 403 kts | 265° |
| 2026-05-05 09:32 | 32.70424 | -17.80946 | 24818 ft | 407 kts | 265° |
| 2026-05-05 09:33 | 32.70192 | -17.84311 | 25218 ft | 408 kts | 265° |
| 2026-05-05 09:33 | 32.69959 | -17.87674 | 25663 ft | 408 kts | 265° |
| 2026-05-05 09:33 | 32.69725 | -17.91044 | 25970 ft | 412 kts | 265° |
| 2026-05-05 09:33 | 32.69488 | -17.94441 | 26286 ft | 415 kts | 265° |
| 2026-05-05 09:34 | 32.69247 | -17.97877 | 26594 ft | 418 kts | 265° |
| 2026-05-05 09:34 | 32.69008 | -18.01275 | 27002 ft | 418 kts | 265° |
| 2026-05-05 09:34 | 32.68765 | -18.04716 | 27445 ft | 418 kts | 265° |
| 2026-05-05 09:34 | 32.68519 | -18.08188 | 27677 ft | 423 kts | 265° |
| 2026-05-05 09:35 | 32.68269 | -18.11699 | 27963 ft | 426 kts | 265° |
| 2026-05-05 09:35 | 32.67767 | -18.18707 | 28885 ft | 425 kts | 265° |
| 2026-05-05 09:35 | 32.67516 | -18.22188 | 29101 ft | 430 kts | 265° |
| 2026-05-05 09:36 | 32.67258 | -18.25758 | 29282 ft | 435 kts | 265° |
| 2026-05-05 09:36 | 32.66999 | -18.29331 | 29741 ft | 434 kts | 265° |
| 2026-05-05 09:36 | 32.66738 | -18.32909 | 30168 ft | 434 kts | 265° |
| 2026-05-05 09:36 | 32.66474 | -18.36509 | 30357 ft | 439 kts | 265° |
| 2026-05-05 09:37 | 32.66211 | -18.40099 | 30522 ft | 443 kts | 265° |
| 2026-05-05 09:37 | 32.65941 | -18.43749 | 30871 ft | 443 kts | 265° |
| 2026-05-05 09:37 | 32.65672 | -18.47388 | 31288 ft | 441 kts | 265° |
| 2026-05-05 09:37 | 32.65400 | -18.51042 | 31432 ft | 447 kts | 265° |
| 2026-05-05 09:38 | 32.65128 | -18.54688 | 31622 ft | 449 kts | 265° |
| 2026-05-05 09:38 | 32.64851 | -18.58384 | 31951 ft | 449 kts | 265° |
| 2026-05-05 09:38 | 32.64575 | -18.62056 | 32475 ft | 445 kts | 265° |
| 2026-05-05 09:38 | 32.64297 | -18.65722 | 32734 ft | 447 kts | 265° |
| 2026-05-05 09:39 | 32.64017 | -18.69416 | 32994 ft | 448 kts | 265° |
| 2026-05-05 09:39 | 32.63737 | -18.73094 | 33507 ft | 443 kts | 265° |
| 2026-05-05 09:39 | 32.63460 | -18.76726 | 33901 ft | 441 kts | 265° |
| 2026-05-05 09:39 | 32.63181 | -18.80362 | 34097 ft | 444 kts | 265° |
| 2026-05-05 09:40 | 32.62903 | -18.83970 | 34312 ft | 445 kts | 265° |
| 2026-05-05 09:40 | 32.62622 | -18.87603 | 34802 ft | 438 kts | 265° |
| 2026-05-05 09:40 | 32.62342 | -18.91205 | 35095 ft | 438 kts | 265° |
| 2026-05-05 09:40 | 32.62061 | -18.94818 | 35181 ft | 442 kts | 265° |
| 2026-05-05 09:41 | 32.61777 | -18.98453 | 35443 ft | 441 kts | 265° |
| 2026-05-05 09:41 | 32.61493 | -19.02069 | 35867 ft | 436 kts | 265° |
| 2026-05-05 09:41 | 32.61213 | -19.05622 | 36085 ft | 436 kts | 265° |
| 2026-05-05 09:41 | 32.60929 | -19.09225 | 36116 ft | 441 kts | 265° |
| 2026-05-05 09:42 | 32.60642 | -19.12845 | 36408 ft | 439 kts | 265° |
| 2026-05-05 09:42 | 32.60356 | -19.16433 | 36787 ft | 435 kts | 265° |
| 2026-05-05 09:42 | 32.60069 | -19.20018 | 36979 ft | 436 kts | 265° |
| 2026-05-05 09:42 | 32.59781 | -19.23616 | 37069 ft | 439 kts | 265° |
| 2026-05-05 09:43 | 32.59492 | -19.27206 | 37340 ft | 437 kts | 265° |
| 2026-05-05 09:43 | 32.59202 | -19.30787 | 37710 ft | 434 kts | 264° |
| 2026-05-05 09:43 | 32.58913 | -19.34355 | 37857 ft | 435 kts | 264° |
| 2026-05-05 09:43 | 32.58621 | -19.37935 | 37987 ft | 437 kts | 264° |
| 2026-05-05 09:44 | 32.58331 | -19.41488 | 38116 ft | 438 kts | 264° |
| 2026-05-05 09:44 | 32.58037 | -19.45073 | 38112 ft | 436 kts | 264° |
| 2026-05-05 09:44 | 32.57447 | -19.52248 | 38118 ft | 437 kts | 264° |
| 2026-05-05 09:45 | 32.56853 | -19.59410 | 38112 ft | 435 kts | 264° |
| 2026-05-05 09:45 | 32.56255 | -19.66560 | 38120 ft | 436 kts | 264° |
| 2026-05-05 09:46 | 32.55654 | -19.73711 | 38117 ft | 435 kts | 264° |
| 2026-05-05 09:46 | 32.55048 | -19.80865 | 38114 ft | 436 kts | 264° |
| 2026-05-05 09:47 | 32.54439 | -19.88006 | 38119 ft | 434 kts | 264° |
| 2026-05-05 09:47 | 32.53827 | -19.95140 | 38113 ft | 436 kts | 264° |
| 2026-05-05 09:48 | 32.53210 | -20.02275 | 38118 ft | 434 kts | 264° |
| 2026-05-05 09:48 | 32.52590 | -20.09409 | 38115 ft | 436 kts | 264° |
| 2026-05-05 09:49 | 32.51968 | -20.16512 | 38113 ft | 434 kts | 264° |
| 2026-05-05 09:49 | 32.51339 | -20.23644 | 38115 ft | 435 kts | 264° |
| 2026-05-05 09:50 | 32.50708 | -20.30752 | 38118 ft | 434 kts | 264° |
| 2026-05-05 09:50 | 32.50072 | -20.37878 | 38118 ft | 435 kts | 264° |
| 2026-05-05 09:51 | 32.49539 | -20.43810 | 38114 ft | 434 kts | 264° |
| 2026-05-05 09:51 | 32.48899 | -20.50900 | 38113 ft | 435 kts | 264° |
| 2026-05-05 09:52 | 32.48252 | -20.58012 | 38126 ft | 432 kts | 264° |
| 2026-05-05 09:52 | 32.47605 | -20.65087 | 38125 ft | 434 kts | 264° |
| 2026-05-05 09:53 | 32.46949 | -20.72194 | 38117 ft | 432 kts | 264° |
| 2026-05-05 09:53 | 32.46296 | -20.79260 | 38120 ft | 434 kts | 264° |
| 2026-05-05 09:54 | 32.45636 | -20.86350 | 38119 ft | 432 kts | 264° |
| 2026-05-05 09:54 | 32.44968 | -20.93468 | 38126 ft | 433 kts | 264° |
| 2026-05-05 09:55 | 32.44303 | -21.00506 | 38121 ft | 432 kts | 264° |
| 2026-05-05 09:55 | 32.43629 | -21.07611 | 38121 ft | 433 kts | 264° |
| 2026-05-05 09:56 | 32.42956 | -21.14643 | 38122 ft | 433 kts | 264° |
| 2026-05-05 09:56 | 32.42276 | -21.21728 | 38120 ft | 432 kts | 264° |
| 2026-05-05 09:57 | 32.41592 | -21.28798 | 38121 ft | 432 kts | 264° |
| 2026-05-05 09:57 | 32.40906 | -21.35851 | 38119 ft | 431 kts | 264° |
| 2026-05-05 09:58 | 32.40215 | -21.42919 | 38121 ft | 432 kts | 264° |
| 2026-05-05 09:58 | 32.39525 | -21.49938 | 38115 ft | 430 kts | 264° |
| 2026-05-05 09:59 | 32.38825 | -21.57017 | 38128 ft | 433 kts | 264° |
| 2026-05-05 09:59 | 32.38125 | -21.64043 | 38118 ft | 431 kts | 263° |
| 2026-05-05 10:00 | 32.37418 | -21.71108 | 38129 ft | 433 kts | 263° |
| 2026-05-05 10:00 | 32.36706 | -21.78183 | 38120 ft | 431 kts | 264° |
| 2026-05-05 10:01 | 32.35997 | -21.85191 | 38126 ft | 433 kts | 263° |
| 2026-05-05 10:01 | 32.35279 | -21.92243 | 38130 ft | 430 kts | 263° |
| 2026-05-05 10:02 | 32.34557 | -21.99294 | 38123 ft | 433 kts | 263° |
| 2026-05-05 10:02 | 32.33831 | -22.06347 | 38129 ft | 431 kts | 263° |
| 2026-05-05 10:03 | 32.33103 | -22.13377 | 38132 ft | 433 kts | 263° |
| 2026-05-05 10:03 | 32.32368 | -22.20436 | 38129 ft | 431 kts | 263° |
| 2026-05-05 10:04 | 32.31629 | -22.27495 | 38133 ft | 433 kts | 263° |
| 2026-05-05 10:04 | 32.30887 | -22.34538 | 38121 ft | 431 kts | 263° |
| 2026-05-05 10:05 | 32.30141 | -22.41594 | 38130 ft | 432 kts | 263° |
| 2026-05-05 10:05 | 32.29395 | -22.48612 | 38125 ft | 432 kts | 263° |
| 2026-05-05 10:06 | 32.28640 | -22.55671 | 38132 ft | 432 kts | 263° |
| 2026-05-05 10:06 | 32.27882 | -22.62712 | 38127 ft | 432 kts | 263° |
| 2026-05-05 10:07 | 32.27119 | -22.69774 | 38130 ft | 431 kts | 263° |
| 2026-05-05 10:07 | 32.26359 | -22.76763 | 38129 ft | 432 kts | 263° |
| 2026-05-05 10:08 | 32.25588 | -22.83820 | 38121 ft | 431 kts | 263° |
| 2026-05-05 10:08 | 32.24813 | -22.90877 | 38133 ft | 434 kts | 263° |
| 2026-05-05 10:09 | 32.24035 | -22.97931 | 38127 ft | 432 kts | 263° |
| 2026-05-05 10:09 | 32.23254 | -23.04977 | 38132 ft | 434 kts | 263° |
| 2026-05-05 10:10 | 32.22471 | -23.11987 | 38133 ft | 431 kts | 263° |
| 2026-05-05 10:10 | 32.21679 | -23.19057 | 38134 ft | 435 kts | 263° |
| 2026-05-05 10:11 | 32.20881 | -23.26133 | 38135 ft | 433 kts | 263° |
| 2026-05-05 10:11 | 32.20078 | -23.33216 | 38151 ft | 435 kts | 263° |
| 2026-05-05 10:12 | 32.19274 | -23.40279 | 38151 ft | 434 kts | 263° |
| 2026-05-05 10:12 | 32.18469 | -23.47318 | 38138 ft | 435 kts | 263° |
| 2026-05-05 10:13 | 32.17653 | -23.54403 | 38138 ft | 434 kts | 263° |
| 2026-05-05 10:13 | 32.16841 | -23.61435 | 38148 ft | 434 kts | 263° |
| 2026-05-05 10:14 | 32.16022 | -23.68491 | 38151 ft | 435 kts | 263° |
| 2026-05-05 10:14 | 32.15192 | -23.75598 | 38139 ft | 434 kts | 263° |
| 2026-05-05 10:15 | 32.14368 | -23.82617 | 38148 ft | 435 kts | 263° |
| 2026-05-05 10:15 | 32.13536 | -23.89677 | 38140 ft | 433 kts | 262° |
| 2026-05-05 10:16 | 32.12699 | -23.96743 | 38147 ft | 434 kts | 263° |
| 2026-05-05 10:16 | 32.11864 | -24.03756 | 38155 ft | 433 kts | 262° |
| 2026-05-05 10:17 | 32.11019 | -24.10818 | 38141 ft | 435 kts | 263° |
| 2026-05-05 10:17 | 32.10170 | -24.17893 | 38145 ft | 435 kts | 263° |
| 2026-05-05 10:18 | 32.09314 | -24.24983 | 38155 ft | 436 kts | 263° |
| 2026-05-05 10:18 | 32.08461 | -24.32012 | 38150 ft | 435 kts | 263° |
| 2026-05-05 10:19 | 32.07597 | -24.39096 | 38146 ft | 435 kts | 263° |
| 2026-05-05 10:19 | 32.06733 | -24.46147 | 38155 ft | 437 kts | 263° |
| 2026-05-05 10:20 | 32.05859 | -24.53253 | 38159 ft | 437 kts | 263° |
| 2026-05-05 10:20 | 32.04981 | -24.60349 | 38161 ft | 438 kts | 263° |
| 2026-05-05 10:21 | 32.04098 | -24.67458 | 38158 ft | 437 kts | 263° |
| 2026-05-05 10:21 | 32.03218 | -24.74512 | 38161 ft | 439 kts | 263° |
| 2026-05-05 10:22 | 32.02323 | -24.81640 | 38159 ft | 439 kts | 264° |
| 2026-05-05 10:22 | 32.01423 | -24.88789 | 38173 ft | 440 kts | 263° |
| 2026-05-05 10:23 | 32.00521 | -24.95913 | 38159 ft | 439 kts | 263° |
| 2026-05-05 10:23 | 31.99525 | -25.03036 | 38166 ft | 441 kts | 261° |
| 2026-05-05 10:24 | 31.98265 | -25.10115 | 38171 ft | 442 kts | 260° |
| 2026-05-05 10:24 | 31.96951 | -25.17168 | 38158 ft | 442 kts | 259° |
| 2026-05-05 10:25 | 31.95645 | -25.24278 | 38163 ft | 443 kts | 261° |
| 2026-05-05 10:25 | 31.95001 | -25.27820 | 38407 ft | 441 kts | 259° |
| 2026-05-05 10:25 | 31.94360 | -25.31356 | 38594 ft | 442 kts | 260° |
| 2026-05-05 10:26 | 31.93725 | -25.34859 | 38707 ft | 443 kts | 260° |
| 2026-05-05 10:26 | 31.93082 | -25.38399 | 38957 ft | 441 kts | 260° |
| 2026-05-05 10:26 | 31.92440 | -25.41929 | 39105 ft | 441 kts | 259° |
| 2026-05-05 10:26 | 31.91796 | -25.45469 | 39153 ft | 443 kts | 260° |
| 2026-05-05 10:27 | 31.91147 | -25.49028 | 39328 ft | 442 kts | 261° |
| 2026-05-05 10:27 | 31.90499 | -25.52569 | 39537 ft | 440 kts | 260° |
| 2026-05-05 10:27 | 31.89204 | -25.59639 | 39704 ft | 443 kts | 261° |
| 2026-05-05 10:28 | 31.88554 | -25.63175 | 39913 ft | 441 kts | 260° |
| 2026-05-05 10:28 | 31.87904 | -25.66707 | 39950 ft | 443 kts | 260° |
| 2026-05-05 10:28 | 31.86595 | -25.73809 | 40083 ft | 446 kts | 260° |
| 2026-05-05 10:29 | 31.85271 | -25.80961 | 40169 ft | 450 kts | 261° |
| 2026-05-05 10:29 | 31.83933 | -25.88161 | 40168 ft | 450 kts | 260° |
| 2026-05-05 10:30 | 31.82810 | -25.94188 | 40170 ft | 451 kts | 261° |
| 2026-05-05 10:30 | 31.81462 | -26.01403 | 40170 ft | 452 kts | 260° |
| 2026-05-05 10:31 | 31.80104 | -26.08645 | 40170 ft | 454 kts | 261° |
| 2026-05-05 10:31 | 31.78740 | -26.15900 | 40172 ft | 454 kts | 260° |
| 2026-05-05 10:32 | 31.77370 | -26.23153 | 40170 ft | 454 kts | 260° |
| 2026-05-05 10:32 | 31.76000 | -26.30387 | 40171 ft | 456 kts | 261° |
| 2026-05-05 10:33 | 31.74617 | -26.37673 | 40172 ft | 458 kts | 261° |
| 2026-05-05 10:33 | 31.73225 | -26.44975 | 40173 ft | 457 kts | 261° |
| 2026-05-05 10:34 | 31.71836 | -26.52238 | 40176 ft | 458 kts | 261° |
| 2026-05-05 10:34 | 31.70427 | -26.59581 | 40169 ft | 459 kts | 261° |
| 2026-05-05 10:35 | 31.69026 | -26.66863 | 40179 ft | 462 kts | 261° |
| 2026-05-05 10:35 | 31.67604 | -26.74228 | 40178 ft | 462 kts | 260° |
| 2026-05-05 10:36 | 31.66172 | -26.81616 | 40176 ft | 462 kts | 260° |
| 2026-05-05 10:36 | 31.64740 | -26.88984 | 40171 ft | 463 kts | 261° |
| 2026-05-05 10:37 | 31.63299 | -26.96377 | 40186 ft | 465 kts | 261° |
| 2026-05-05 10:37 | 31.61849 | -27.03787 | 40179 ft | 466 kts | 261° |
| 2026-05-05 10:38 | 31.60393 | -27.11200 | 40182 ft | 466 kts | 261° |
| 2026-05-05 10:38 | 31.58942 | -27.18566 | 40164 ft | 466 kts | 261° |
| 2026-05-05 10:39 | 31.57474 | -27.25998 | 40183 ft | 468 kts | 261° |
| 2026-05-05 10:39 | 31.55999 | -27.33442 | 40179 ft | 469 kts | 261° |
| 2026-05-05 10:40 | 31.54518 | -27.40887 | 40179 ft | 469 kts | 261° |
| 2026-05-05 10:40 | 31.53033 | -27.48330 | 40176 ft | 469 kts | 261° |
| 2026-05-05 10:41 | 31.51540 | -27.55790 | 40187 ft | 470 kts | 261° |
| 2026-05-05 10:41 | 31.50042 | -27.63252 | 40186 ft | 471 kts | 261° |
| 2026-05-05 10:42 | 31.47788 | -27.74435 | 40188 ft | 471 kts | 261° |
| 2026-05-05 10:43 | 31.46275 | -27.81906 | 40184 ft | 471 kts | 261° |
| 2026-05-05 10:43 | 31.44756 | -27.89389 | 40187 ft | 472 kts | 261° |
| 2026-05-05 10:44 | 31.43232 | -27.96875 | 40186 ft | 472 kts | 261° |
| 2026-05-05 10:44 | 31.41701 | -28.04363 | 40187 ft | 472 kts | 261° |
| 2026-05-05 10:45 | 31.40167 | -28.11845 | 40181 ft | 473 kts | 262° |
| 2026-05-05 10:45 | 31.38624 | -28.19356 | 40187 ft | 475 kts | 262° |
| 2026-05-05 10:46 | 31.37079 | -28.26844 | 40185 ft | 475 kts | 262° |
| 2026-05-05 10:46 | 31.35519 | -28.34379 | 40187 ft | 475 kts | 262° |
| 2026-05-05 10:47 | 31.33956 | -28.41907 | 40187 ft | 475 kts | 262° |
| 2026-05-05 10:47 | 31.32389 | -28.49432 | 40189 ft | 476 kts | 262° |
| 2026-05-05 10:48 | 31.30829 | -28.56900 | 40188 ft | 476 kts | 261° |
| 2026-05-05 10:48 | 31.29256 | -28.64410 | 40189 ft | 476 kts | 261° |
| 2026-05-05 10:49 | 31.27677 | -28.71924 | 40190 ft | 476 kts | 262° |
| 2026-05-05 10:49 | 31.26090 | -28.79450 | 40192 ft | 477 kts | 262° |
| 2026-05-05 10:50 | 31.24499 | -28.86973 | 40192 ft | 477 kts | 262° |
| 2026-05-05 10:50 | 31.22902 | -28.94498 | 40195 ft | 477 kts | 262° |
| 2026-05-05 10:51 | 31.21296 | -29.02044 | 40189 ft | 477 kts | 262° |
| 2026-05-05 10:51 | 31.19687 | -29.09580 | 40194 ft | 478 kts | 262° |
| 2026-05-05 10:52 | 31.18077 | -29.17103 | 40196 ft | 478 kts | 262° |
| 2026-05-05 10:52 | 31.16470 | -29.24583 | 40198 ft | 478 kts | 262° |
| 2026-05-05 10:53 | 31.14848 | -29.32115 | 40197 ft | 479 kts | 263° |
| 2026-05-05 10:53 | 31.13218 | -29.39663 | 40203 ft | 479 kts | 263° |
| 2026-05-05 10:54 | 31.11580 | -29.47217 | 40205 ft | 479 kts | 263° |
| 2026-05-05 10:54 | 31.09937 | -29.54770 | 40185 ft | 481 kts | 263° |
| 2026-05-05 10:55 | 31.08287 | -29.62345 | 40206 ft | 483 kts | 263° |
| 2026-05-05 10:55 | 31.06627 | -29.69932 | 40206 ft | 483 kts | 263° |
| 2026-05-05 10:56 | 31.04959 | -29.77533 | 40200 ft | 483 kts | 263° |
| 2026-05-05 10:56 | 31.03296 | -29.85087 | 40200 ft | 483 kts | 263° |
| 2026-05-05 10:57 | 31.01620 | -29.92680 | 40208 ft | 483 kts | 263° |
| 2026-05-05 10:57 | 30.99950 | -30.00274 | 40209 ft | 482 kts | 264° |
| 2026-05-05 10:58 | 30.98506 | -30.07892 | 40206 ft | 480 kts | 266° |
| 2026-05-05 10:58 | 30.97174 | -30.15518 | 40202 ft | 479 kts | 266° |
| 2026-05-05 10:59 | 30.95834 | -30.23117 | 40208 ft | 479 kts | 266° |
| 2026-05-05 10:59 | 30.94470 | -30.30705 | 40208 ft | 479 kts | 266° |
| 2026-05-05 11:00 | 30.93089 | -30.38298 | 40210 ft | 479 kts | 266° |
| 2026-05-05 11:00 | 30.91703 | -30.45883 | 40219 ft | 479 kts | 266° |
| 2026-05-05 11:01 | 30.90322 | -30.53423 | 40203 ft | 478 kts | 266° |
| 2026-05-05 11:01 | 30.88928 | -30.61007 | 40206 ft | 478 kts | 266° |
| 2026-05-05 11:02 | 30.87533 | -30.68579 | 40183 ft | 478 kts | 267° |
| 2026-05-05 11:02 | 30.86133 | -30.76149 | 40206 ft | 479 kts | 267° |
| 2026-05-05 11:03 | 30.84725 | -30.83737 | 40210 ft | 479 kts | 267° |
| 2026-05-05 11:03 | 30.83312 | -30.91322 | 40210 ft | 480 kts | 267° |
| 2026-05-05 11:04 | 30.81892 | -30.98914 | 40193 ft | 480 kts | 267° |
| 2026-05-05 11:04 | 30.80480 | -31.06446 | 40214 ft | 481 kts | 267° |
| 2026-05-05 11:05 | 30.79046 | -31.14068 | 40214 ft | 481 kts | 267° |
| 2026-05-05 11:05 | 30.77610 | -31.21673 | 40214 ft | 481 kts | 267° |
| 2026-05-05 11:06 | 30.76167 | -31.29288 | 40210 ft | 482 kts | 267° |
| 2026-05-05 11:06 | 30.74966 | -31.35605 | 40211 ft | 482 kts | 267° |
| 2026-05-05 11:07 | 30.73517 | -31.43206 | 40211 ft | 482 kts | 267° |
| 2026-05-05 11:07 | 30.72061 | -31.50817 | 40211 ft | 482 kts | 267° |
| 2026-05-05 11:08 | 30.70603 | -31.58423 | 40216 ft | 483 kts | 268° |
| 2026-05-05 11:08 | 30.69134 | -31.66057 | 40217 ft | 485 kts | 268° |
| 2026-05-05 11:09 | 30.67656 | -31.73703 | 40217 ft | 485 kts | 267° |
| 2026-05-05 11:09 | 30.66171 | -31.81355 | 40198 ft | 485 kts | 268° |
| 2026-05-05 11:10 | 30.64689 | -31.88977 | 40219 ft | 486 kts | 268° |
| 2026-05-05 11:10 | 30.63194 | -31.96644 | 40219 ft | 486 kts | 268° |
| 2026-05-05 11:11 | 30.61693 | -32.04307 | 40219 ft | 486 kts | 268° |
| 2026-05-05 11:11 | 30.60188 | -32.11970 | 40221 ft | 486 kts | 268° |
| 2026-05-05 11:12 | 30.58687 | -32.19577 | 40221 ft | 485 kts | 268° |
| 2026-05-05 11:12 | 30.57174 | -32.27230 | 40221 ft | 485 kts | 268° |
| 2026-05-05 11:13 | 30.55658 | -32.34873 | 40195 ft | 485 kts | 268° |
| 2026-05-05 11:13 | 30.54142 | -32.42484 | 40228 ft | 483 kts | 267° |
| 2026-05-05 11:14 | 30.52626 | -32.50073 | 40220 ft | 482 kts | 267° |
| 2026-05-05 11:14 | 30.51110 | -32.57649 | 40217 ft | 482 kts | 267° |
| 2026-05-05 11:15 | 30.49600 | -32.65175 | 40218 ft | 482 kts | 266° |
| 2026-05-05 11:15 | 30.48076 | -32.72727 | 40230 ft | 480 kts | 266° |
| 2026-05-05 11:16 | 30.46550 | -32.80275 | 40228 ft | 480 kts | 266° |
| 2026-05-05 11:16 | 30.45021 | -32.87815 | 40227 ft | 479 kts | 266° |
| 2026-05-05 11:17 | 30.43499 | -32.95296 | 40223 ft | 479 kts | 266° |
| 2026-05-05 11:17 | 30.41967 | -33.02799 | 40229 ft | 478 kts | 266° |
| 2026-05-05 11:18 | 30.40431 | -33.10302 | 40229 ft | 478 kts | 266° |
| 2026-05-05 11:18 | 30.38886 | -33.17830 | 40216 ft | 478 kts | 265° |
| 2026-05-05 11:19 | 30.37342 | -33.25320 | 40231 ft | 477 kts | 265° |
| 2026-05-05 11:19 | 30.35803 | -33.32762 | 40224 ft | 477 kts | 265° |
| 2026-05-05 11:20 | 30.34256 | -33.40229 | 40229 ft | 477 kts | 265° |
| 2026-05-05 11:20 | 30.32703 | -33.47701 | 40227 ft | 477 kts | 265° |
| 2026-05-05 11:21 | 30.31140 | -33.55199 | 40233 ft | 478 kts | 265° |
| 2026-05-05 11:21 | 30.29585 | -33.62627 | 40236 ft | 478 kts | 265° |
| 2026-05-05 11:22 | 30.28017 | -33.70100 | 40209 ft | 478 kts | 265° |
| 2026-05-05 11:22 | 30.26444 | -33.77577 | 40236 ft | 478 kts | 265° |
| 2026-05-05 11:23 | 30.24865 | -33.85057 | 40240 ft | 478 kts | 265° |
| 2026-05-05 11:23 | 30.23280 | -33.92541 | 40239 ft | 479 kts | 265° |
| 2026-05-05 11:24 | 30.21692 | -34.00018 | 40235 ft | 479 kts | 265° |
| 2026-05-05 11:24 | 30.20106 | -34.07465 | 40234 ft | 479 kts | 265° |
| 2026-05-05 11:25 | 30.18508 | -34.14945 | 40239 ft | 479 kts | 265° |
| 2026-05-05 11:25 | 30.16904 | -34.22431 | 40218 ft | 479 kts | 264° |
| 2026-05-05 11:26 | 30.15302 | -34.29885 | 40239 ft | 480 kts | 264° |
| 2026-05-05 11:26 | 30.13686 | -34.37384 | 40238 ft | 480 kts | 264° |
| 2026-05-05 11:27 | 30.12068 | -34.44865 | 40237 ft | 480 kts | 264° |
| 2026-05-05 11:27 | 30.10444 | -34.52354 | 40236 ft | 481 kts | 264° |
| 2026-05-05 11:28 | 30.08818 | -34.59833 | 40237 ft | 481 kts | 264° |
| 2026-05-05 11:28 | 30.07180 | -34.67345 | 40244 ft | 482 kts | 264° |
| 2026-05-05 11:29 | 30.05539 | -34.74846 | 40222 ft | 481 kts | 263° |
| 2026-05-05 11:29 | 30.03894 | -34.82341 | 40242 ft | 481 kts | 263° |
| 2026-05-05 11:30 | 30.02246 | -34.89829 | 40243 ft | 481 kts | 263° |
| 2026-05-05 11:30 | 30.00596 | -34.97311 | 40242 ft | 481 kts | 263° |
| 2026-05-05 11:31 | 29.99073 | -35.04765 | 40246 ft | 479 kts | 265° |
| 2026-05-05 11:31 | 29.97737 | -35.12273 | 40244 ft | 477 kts | 266° |
| 2026-05-05 11:32 | 29.96421 | -35.19779 | 40245 ft | 477 kts | 265° |
| 2026-05-05 11:32 | 29.95078 | -35.27281 | 40235 ft | 478 kts | 265° |
| 2026-05-05 11:33 | 29.93716 | -35.34780 | 40244 ft | 477 kts | 265° |
| 2026-05-05 11:33 | 29.92348 | -35.42266 | 40247 ft | 477 kts | 265° |
| 2026-05-05 11:34 | 29.90975 | -35.49760 | 40244 ft | 478 kts | 265° |
| 2026-05-05 11:34 | 29.89599 | -35.57244 | 40246 ft | 477 kts | 265° |
| 2026-05-05 11:35 | 29.88221 | -35.64713 | 40249 ft | 476 kts | 265° |
| 2026-05-05 11:35 | 29.86839 | -35.72183 | 40249 ft | 476 kts | 265° |
| 2026-05-05 11:36 | 29.85463 | -35.79602 | 40244 ft | 475 kts | 264° |
| 2026-05-05 11:36 | 29.84073 | -35.87065 | 40246 ft | 475 kts | 264° |
| 2026-05-05 11:37 | 29.82686 | -35.94486 | 40249 ft | 475 kts | 264° |
| 2026-05-05 11:37 | 29.81300 | -36.01882 | 40234 ft | 475 kts | 264° |
| 2026-05-05 11:38 | 29.79900 | -36.09329 | 40249 ft | 474 kts | 264° |
| 2026-05-05 11:38 | 29.78499 | -36.16755 | 40249 ft | 474 kts | 264° |
| 2026-05-05 11:39 | 29.77100 | -36.24146 | 40249 ft | 474 kts | 264° |
| 2026-05-05 11:39 | 29.75690 | -36.31575 | 40251 ft | 474 kts | 264° |
| 2026-05-05 11:40 | 29.74275 | -36.38999 | 40251 ft | 474 kts | 264° |
| 2026-05-05 11:40 | 29.72858 | -36.46415 | 40252 ft | 474 kts | 263° |
| 2026-05-05 11:41 | 29.71444 | -36.53789 | 40251 ft | 474 kts | 263° |
| 2026-05-05 11:41 | 29.70018 | -36.61205 | 40251 ft | 474 kts | 263° |
| 2026-05-05 11:42 | 29.68589 | -36.68611 | 40254 ft | 474 kts | 263° |
| 2026-05-05 11:42 | 29.67161 | -36.75987 | 40242 ft | 474 kts | 263° |
| 2026-05-05 11:43 | 29.65725 | -36.83384 | 40259 ft | 472 kts | 263° |
| 2026-05-05 11:43 | 29.64288 | -36.90757 | 40245 ft | 472 kts | 263° |
| 2026-05-05 11:44 | 29.62855 | -36.98098 | 40246 ft | 472 kts | 263° |
| 2026-05-05 11:44 | 29.61652 | -37.04235 | 40256 ft | 471 kts | 263° |
| 2026-05-05 11:45 | 29.60207 | -37.11591 | 40251 ft | 471 kts | 263° |
| 2026-05-05 11:45 | 29.58764 | -37.18911 | 40253 ft | 471 kts | 263° |
| 2026-05-05 11:46 | 29.57311 | -37.26262 | 40244 ft | 471 kts | 263° |
| 2026-05-05 11:46 | 29.55862 | -37.33567 | 40255 ft | 470 kts | 263° |
| 2026-05-05 11:47 | 29.54403 | -37.40899 | 40249 ft | 470 kts | 263° |
| 2026-05-05 11:47 | 29.52943 | -37.48219 | 40239 ft | 470 kts | 262° |
| 2026-05-05 11:48 | 29.50749 | -37.59174 | 40255 ft | 468 kts | 262° |
| 2026-05-05 11:48 | 29.49290 | -37.66431 | 40252 ft | 468 kts | 262° |
| 2026-05-05 11:49 | 29.47816 | -37.73744 | 40249 ft | 468 kts | 262° |
| 2026-05-05 11:49 | 29.46351 | -37.80982 | 40254 ft | 467 kts | 262° |
| 2026-05-05 11:50 | 29.44875 | -37.88263 | 40255 ft | 467 kts | 262° |
| 2026-05-05 11:50 | 29.43397 | -37.95526 | 40235 ft | 467 kts | 262° |
| 2026-05-05 11:51 | 29.41917 | -38.02778 | 40254 ft | 465 kts | 262° |
| 2026-05-05 11:51 | 29.40446 | -38.09966 | 40254 ft | 465 kts | 262° |
| 2026-05-05 11:52 | 29.38960 | -38.17205 | 40254 ft | 465 kts | 262° |
| 2026-05-05 11:52 | 29.37477 | -38.24415 | 40251 ft | 464 kts | 262° |
| 2026-05-05 11:53 | 29.35999 | -38.31572 | 40253 ft | 463 kts | 262° |
| 2026-05-05 11:53 | 29.34507 | -38.38778 | 40252 ft | 463 kts | 262° |
| 2026-05-05 11:54 | 29.33013 | -38.45976 | 40257 ft | 463 kts | 262° |
| 2026-05-05 11:54 | 29.31527 | -38.53111 | 40257 ft | 462 kts | 262° |
| 2026-05-05 11:55 | 29.30025 | -38.60303 | 40253 ft | 462 kts | 262° |
| 2026-05-05 11:55 | 29.28535 | -38.67422 | 40239 ft | 462 kts | 261° |
| 2026-05-05 11:56 | 29.27033 | -38.74574 | 40257 ft | 461 kts | 261° |
| 2026-05-05 11:56 | 29.25525 | -38.81731 | 40255 ft | 461 kts | 261° |
| 2026-05-05 11:57 | 29.24018 | -38.88870 | 40255 ft | 461 kts | 261° |
| 2026-05-05 11:57 | 29.22516 | -38.95963 | 40256 ft | 461 kts | 261° |
| 2026-05-05 11:58 | 29.21000 | -39.03098 | 40258 ft | 461 kts | 261° |
| 2026-05-05 11:58 | 29.19474 | -39.10263 | 40269 ft | 461 kts | 261° |
| 2026-05-05 11:59 | 29.17960 | -39.17354 | 40261 ft | 461 kts | 261° |
| 2026-05-05 11:59 | 29.16434 | -39.24478 | 40262 ft | 460 kts | 261° |
| 2026-05-05 12:00 | 29.14908 | -39.31589 | 40262 ft | 460 kts | 261° |
| 2026-05-05 12:00 | 29.13375 | -39.38707 | 40260 ft | 460 kts | 261° |
| 2026-05-05 12:01 | 29.11841 | -39.45811 | 40260 ft | 460 kts | 261° |
| 2026-05-05 12:01 | 29.10300 | -39.52927 | 40253 ft | 460 kts | 261° |
| 2026-05-05 12:02 | 29.08764 | -39.60001 | 40252 ft | 460 kts | 261° |
| 2026-05-05 12:02 | 29.07218 | -39.67102 | 40261 ft | 459 kts | 261° |
| 2026-05-05 12:03 | 29.05666 | -39.74209 | 40260 ft | 459 kts | 261° |
| 2026-05-05 12:03 | 29.04122 | -39.81265 | 40249 ft | 459 kts | 261° |
| 2026-05-05 12:04 | 29.02569 | -39.88340 | 40257 ft | 458 kts | 261° |
| 2026-05-05 12:04 | 29.01022 | -39.95370 | 40262 ft | 458 kts | 261° |
| 2026-05-05 12:05 | 28.99075 | -40.02341 | 40259 ft | 462 kts | 253° |
| 2026-05-05 12:05 | 28.96615 | -40.09141 | 40259 ft | 462 kts | 252° |
| 2026-05-05 12:06 | 28.94063 | -40.15894 | 40260 ft | 462 kts | 251° |
| 2026-05-05 12:06 | 28.91517 | -40.22598 | 40260 ft | 462 kts | 251° |
| 2026-05-05 12:07 | 28.88965 | -40.29342 | 40259 ft | 461 kts | 251° |
| 2026-05-05 12:07 | 28.86423 | -40.36066 | 40259 ft | 461 kts | 251° |
| 2026-05-05 12:08 | 28.83897 | -40.42741 | 40259 ft | 461 kts | 251° |
| 2026-05-05 12:08 | 28.81340 | -40.49485 | 40253 ft | 460 kts | 251° |
| 2026-05-05 12:09 | 28.78810 | -40.56145 | 40251 ft | 459 kts | 251° |
| 2026-05-05 12:09 | 28.76261 | -40.62844 | 40255 ft | 459 kts | 251° |
| 2026-05-05 12:10 | 28.73709 | -40.69537 | 40254 ft | 459 kts | 251° |
| 2026-05-05 12:10 | 28.71175 | -40.76173 | 40253 ft | 459 kts | 251° |
| 2026-05-05 12:11 | 28.68614 | -40.82866 | 40251 ft | 459 kts | 251° |
| 2026-05-05 12:11 | 28.66071 | -40.89501 | 40257 ft | 459 kts | 251° |
| 2026-05-05 12:12 | 28.63509 | -40.96173 | 40256 ft | 459 kts | 251° |
| 2026-05-05 12:12 | 28.60945 | -41.02840 | 40262 ft | 459 kts | 251° |
| 2026-05-05 12:13 | 28.58374 | -41.09511 | 40255 ft | 459 kts | 251° |
| 2026-05-05 12:13 | 28.55801 | -41.16179 | 40250 ft | 459 kts | 251° |
| 2026-05-05 12:14 | 28.53240 | -41.22800 | 40251 ft | 459 kts | 251° |
| 2026-05-05 12:14 | 28.50661 | -41.29458 | 40250 ft | 459 kts | 251° |
| 2026-05-05 12:15 | 28.48084 | -41.36101 | 40241 ft | 459 kts | 251° |
| 2026-05-05 12:15 | 28.45500 | -41.42747 | 40249 ft | 459 kts | 251° |
| 2026-05-05 12:16 | 28.42908 | -41.49405 | 40246 ft | 459 kts | 251° |
| 2026-05-05 12:16 | 28.40329 | -41.56017 | 40253 ft | 459 kts | 251° |
| 2026-05-05 12:17 | 28.37732 | -41.62663 | 40255 ft | 459 kts | 251° |
| 2026-05-05 12:17 | 28.35148 | -41.69266 | 40249 ft | 459 kts | 251° |
| 2026-05-05 12:18 | 28.32546 | -41.75904 | 40250 ft | 459 kts | 251° |
| 2026-05-05 12:18 | 28.29944 | -41.82526 | 40251 ft | 459 kts | 251° |
| 2026-05-05 12:19 | 28.27345 | -41.89133 | 40249 ft | 458 kts | 251° |
| 2026-05-05 12:19 | 28.24743 | -41.95735 | 40248 ft | 458 kts | 251° |
| 2026-05-05 12:20 | 28.22139 | -42.02332 | 40248 ft | 458 kts | 251° |
| 2026-05-05 12:20 | 28.19533 | -42.08921 | 40249 ft | 458 kts | 251° |
| 2026-05-05 12:21 | 28.16934 | -42.15484 | 40249 ft | 458 kts | 251° |
| 2026-05-05 12:21 | 28.14323 | -42.22063 | 40248 ft | 457 kts | 251° |
| 2026-05-05 12:22 | 28.12154 | -42.27522 | 40246 ft | 457 kts | 251° |
| 2026-05-05 12:22 | 28.09539 | -42.34091 | 40246 ft | 457 kts | 251° |
| 2026-05-05 12:23 | 28.06924 | -42.40650 | 40241 ft | 457 kts | 251° |
| 2026-05-05 12:23 | 28.04303 | -42.47214 | 40249 ft | 456 kts | 251° |
| 2026-05-05 12:24 | 28.01684 | -42.53760 | 40246 ft | 456 kts | 251° |
| 2026-05-05 12:24 | 27.99061 | -42.60307 | 40246 ft | 456 kts | 251° |
| 2026-05-05 12:25 | 27.96445 | -42.66824 | 40246 ft | 456 kts | 251° |
| 2026-05-05 12:25 | 27.93816 | -42.73364 | 40246 ft | 456 kts | 251° |
| 2026-05-05 12:26 | 27.91189 | -42.79889 | 40243 ft | 456 kts | 251° |
| 2026-05-05 12:26 | 27.88559 | -42.86408 | 40245 ft | 456 kts | 251° |
| 2026-05-05 12:27 | 27.85924 | -42.92932 | 40245 ft | 456 kts | 250° |
| 2026-05-05 12:27 | 27.83289 | -42.99443 | 40245 ft | 456 kts | 250° |
| 2026-05-05 12:28 | 27.80666 | -43.05914 | 40238 ft | 455 kts | 251° |
| 2026-05-05 12:28 | 27.78026 | -43.12415 | 40243 ft | 455 kts | 250° |
| 2026-05-05 12:29 | 27.75384 | -43.18912 | 40246 ft | 455 kts | 250° |
| 2026-05-05 12:29 | 27.72733 | -43.25421 | 40247 ft | 455 kts | 250° |
| 2026-05-05 12:30 | 27.70081 | -43.31921 | 40246 ft | 455 kts | 250° |
| 2026-05-05 12:30 | 27.67429 | -43.38410 | 40246 ft | 455 kts | 250° |
| 2026-05-05 12:31 | 27.64772 | -43.44899 | 40238 ft | 455 kts | 250° |
| 2026-05-05 12:31 | 27.62132 | -43.51338 | 40244 ft | 455 kts | 250° |
| 2026-05-05 12:32 | 27.59463 | -43.57837 | 40246 ft | 454 kts | 250° |
| 2026-05-05 12:32 | 27.56805 | -43.64300 | 40232 ft | 454 kts | 251° |
| 2026-05-05 12:33 | 27.54156 | -43.70730 | 40244 ft | 454 kts | 250° |
| 2026-05-05 12:33 | 27.51495 | -43.77176 | 40242 ft | 452 kts | 250° |
| 2026-05-05 12:34 | 27.48851 | -43.83568 | 40238 ft | 449 kts | 250° |
| 2026-05-05 12:34 | 27.46217 | -43.89933 | 40246 ft | 448 kts | 250° |
| 2026-05-05 12:35 | 27.43581 | -43.96295 | 40241 ft | 448 kts | 250° |
| 2026-05-05 12:35 | 27.40939 | -44.02657 | 40241 ft | 448 kts | 250° |
| 2026-05-05 12:36 | 27.38293 | -44.09020 | 40250 ft | 449 kts | 250° |
| 2026-05-05 12:36 | 27.35643 | -44.15382 | 40240 ft | 449 kts | 250° |
| 2026-05-05 12:37 | 27.33000 | -44.21716 | 40243 ft | 449 kts | 250° |
| 2026-05-05 12:37 | 27.30345 | -44.28070 | 40243 ft | 449 kts | 250° |
| 2026-05-05 12:38 | 27.27684 | -44.34428 | 40243 ft | 449 kts | 250° |
| 2026-05-05 12:38 | 27.25023 | -44.40777 | 40242 ft | 449 kts | 250° |
| 2026-05-05 12:39 | 27.22352 | -44.47137 | 40244 ft | 448 kts | 250° |
| 2026-05-05 12:39 | 27.19702 | -44.53439 | 40244 ft | 448 kts | 250° |
| 2026-05-05 12:40 | 27.17034 | -44.59776 | 40243 ft | 448 kts | 250° |
| 2026-05-05 12:40 | 27.14365 | -44.66103 | 40242 ft | 448 kts | 250° |
| 2026-05-05 12:41 | 27.11691 | -44.72433 | 40240 ft | 448 kts | 250° |
| 2026-05-05 12:41 | 27.09019 | -44.78747 | 40246 ft | 448 kts | 250° |
| 2026-05-05 12:42 | 27.06354 | -44.85037 | 40241 ft | 447 kts | 249° |
| 2026-05-05 12:42 | 27.03676 | -44.91349 | 40243 ft | 447 kts | 249° |
| 2026-05-05 12:43 | 27.00998 | -44.97649 | 40243 ft | 447 kts | 249° |
| 2026-05-05 12:43 | 26.98426 | -45.03995 | 40238 ft | 446 kts | 252° |
| 2026-05-05 12:44 | 26.96023 | -45.10415 | 40241 ft | 446 kts | 252° |
| 2026-05-05 12:44 | 26.93641 | -45.16829 | 40241 ft | 446 kts | 252° |
| 2026-05-05 12:45 | 26.91249 | -45.23203 | 40240 ft | 446 kts | 252° |
| 2026-05-05 12:45 | 26.88824 | -45.29614 | 40238 ft | 445 kts | 252° |
| 2026-05-05 12:46 | 26.86412 | -45.35972 | 40241 ft | 446 kts | 252° |
| 2026-05-05 12:46 | 26.83986 | -45.42356 | 40241 ft | 445 kts | 252° |
| 2026-05-05 12:47 | 26.81563 | -45.48725 | 40238 ft | 444 kts | 252° |
| 2026-05-05 12:47 | 26.79142 | -45.55081 | 40240 ft | 444 kts | 252° |
| 2026-05-05 12:48 | 26.76707 | -45.61463 | 40243 ft | 444 kts | 251° |
| 2026-05-05 12:48 | 26.74281 | -45.67809 | 40232 ft | 443 kts | 251° |
| 2026-05-05 12:49 | 26.71867 | -45.74116 | 40255 ft | 443 kts | 251° |
| 2026-05-05 12:49 | 26.69435 | -45.80459 | 40233 ft | 443 kts | 251° |
| 2026-05-05 12:50 | 26.67003 | -45.86791 | 40242 ft | 442 kts | 251° |
| 2026-05-05 12:50 | 26.64570 | -45.93117 | 40232 ft | 443 kts | 251° |
| 2026-05-05 12:51 | 26.62150 | -45.99402 | 40232 ft | 443 kts | 251° |
| 2026-05-05 12:51 | 26.59710 | -46.05725 | 40242 ft | 442 kts | 251° |
| 2026-05-05 12:52 | 26.57271 | -46.12034 | 40237 ft | 442 kts | 251° |
| 2026-05-05 12:52 | 26.54829 | -46.18344 | 40236 ft | 442 kts | 251° |
| 2026-05-05 12:53 | 26.52395 | -46.24624 | 40241 ft | 442 kts | 251° |
| 2026-05-05 12:53 | 26.49952 | -46.30915 | 40236 ft | 442 kts | 251° |
| 2026-05-05 12:54 | 26.46279 | -46.40357 | 40239 ft | 441 kts | 251° |
| 2026-05-05 12:55 | 26.43831 | -46.46637 | 40237 ft | 441 kts | 251° |
| 2026-05-05 12:55 | 26.41377 | -46.52925 | 40237 ft | 442 kts | 251° |
| 2026-05-05 12:56 | 26.38923 | -46.59202 | 40236 ft | 441 kts | 251° |
| 2026-05-05 12:56 | 26.36467 | -46.65473 | 40233 ft | 440 kts | 251° |
| 2026-05-05 12:57 | 26.34012 | -46.71733 | 40233 ft | 440 kts | 251° |
| 2026-05-05 12:57 | 26.31554 | -46.77992 | 40240 ft | 441 kts | 250° |
| 2026-05-05 12:58 | 26.29089 | -46.84259 | 40236 ft | 441 kts | 250° |
| 2026-05-05 12:58 | 26.26618 | -46.90530 | 40239 ft | 441 kts | 250° |
| 2026-05-05 12:59 | 26.24156 | -46.96768 | 40238 ft | 441 kts | 250° |
| 2026-05-05 12:59 | 26.22099 | -47.01976 | 40233 ft | 441 kts | 250° |
| 2026-05-05 13:00 | 26.18384 | -47.11361 | 40241 ft | 441 kts | 250° |
| 2026-05-05 13:01 | 26.13413 | -47.23885 | 40238 ft | 441 kts | 250° |
| 2026-05-05 13:01 | 26.10943 | -47.30094 | 40238 ft | 441 kts | 250° |
| 2026-05-05 13:02 | 26.08454 | -47.36344 | 40237 ft | 441 kts | 250° |
| 2026-05-05 13:02 | 26.05959 | -47.42597 | 40238 ft | 441 kts | 250° |
| 2026-05-05 13:03 | 26.03477 | -47.48807 | 40238 ft | 441 kts | 250° |
| 2026-05-05 13:03 | 26.00982 | -47.55043 | 40238 ft | 441 kts | 250° |
| 2026-05-05 13:04 | 25.98487 | -47.61269 | 40238 ft | 441 kts | 250° |
| 2026-05-05 13:04 | 25.95991 | -47.67486 | 40237 ft | 440 kts | 250° |
| 2026-05-05 13:05 | 25.93494 | -47.73698 | 40239 ft | 440 kts | 250° |
| 2026-05-05 13:05 | 25.90995 | -47.79905 | 40238 ft | 440 kts | 250° |
| 2026-05-05 13:06 | 25.88499 | -47.86098 | 40238 ft | 439 kts | 250° |
| 2026-05-05 13:06 | 25.86001 | -47.92283 | 40236 ft | 439 kts | 250° |
| 2026-05-05 13:07 | 25.83508 | -47.98451 | 40236 ft | 440 kts | 250° |
| 2026-05-05 13:07 | 25.80995 | -48.04656 | 40235 ft | 440 kts | 249° |
| 2026-05-05 13:08 | 25.78487 | -48.10840 | 40236 ft | 439 kts | 249° |
| 2026-05-05 13:08 | 25.75978 | -48.17017 | 40234 ft | 439 kts | 249° |
| 2026-05-05 13:09 | 25.73466 | -48.23193 | 40236 ft | 439 kts | 249° |
| 2026-05-05 13:09 | 25.70966 | -48.29331 | 40233 ft | 439 kts | 249° |
| 2026-05-05 13:10 | 25.68450 | -48.35499 | 40233 ft | 439 kts | 249° |
| 2026-05-05 13:10 | 25.65929 | -48.41669 | 40233 ft | 439 kts | 249° |
| 2026-05-05 13:11 | 25.63408 | -48.47832 | 40230 ft | 439 kts | 249° |
| 2026-05-05 13:11 | 25.60891 | -48.53977 | 40231 ft | 438 kts | 249° |
| 2026-05-05 13:12 | 25.58364 | -48.60136 | 40239 ft | 439 kts | 249° |
| 2026-05-05 13:12 | 25.55832 | -48.66299 | 40227 ft | 439 kts | 249° |
| 2026-05-05 13:13 | 25.53297 | -48.72458 | 40231 ft | 439 kts | 249° |
| 2026-05-05 13:13 | 25.50760 | -48.78616 | 40228 ft | 439 kts | 249° |
| 2026-05-05 13:14 | 25.48238 | -48.84727 | 40227 ft | 439 kts | 249° |
| 2026-05-05 13:14 | 25.45695 | -48.90880 | 40230 ft | 439 kts | 249° |
| 2026-05-05 13:15 | 25.43149 | -48.97034 | 40231 ft | 440 kts | 249° |
| 2026-05-05 13:15 | 25.40598 | -49.03189 | 40226 ft | 440 kts | 249° |
| 2026-05-05 13:16 | 25.38045 | -49.09341 | 40224 ft | 440 kts | 249° |
| 2026-05-05 13:16 | 25.35491 | -49.15485 | 40234 ft | 439 kts | 249° |
| 2026-05-05 13:17 | 25.32938 | -49.21621 | 40224 ft | 440 kts | 249° |
| 2026-05-05 13:17 | 25.30388 | -49.27738 | 40226 ft | 440 kts | 249° |
| 2026-05-05 13:18 | 25.27822 | -49.33887 | 40221 ft | 439 kts | 249° |
| 2026-05-05 13:18 | 25.25260 | -49.40015 | 40225 ft | 439 kts | 249° |
| 2026-05-05 13:19 | 25.22698 | -49.46136 | 40223 ft | 439 kts | 248° |
| 2026-05-05 13:19 | 25.20128 | -49.52268 | 40232 ft | 440 kts | 248° |
| 2026-05-05 13:20 | 25.17554 | -49.58402 | 40214 ft | 439 kts | 248° |
| 2026-05-05 13:20 | 25.14989 | -49.64504 | 40231 ft | 439 kts | 248° |
| 2026-05-05 13:21 | 25.12416 | -49.70617 | 40232 ft | 439 kts | 248° |
| 2026-05-05 13:21 | 25.09836 | -49.76737 | 40219 ft | 439 kts | 248° |
| 2026-05-05 13:22 | 25.07259 | -49.82841 | 40229 ft | 439 kts | 248° |
| 2026-05-05 13:22 | 25.04709 | -49.88876 | 40227 ft | 439 kts | 248° |
| 2026-05-05 13:23 | 25.02122 | -49.94989 | 40228 ft | 439 kts | 248° |
| 2026-05-05 13:23 | 24.99551 | -50.01123 | 40225 ft | 438 kts | 249° |
| 2026-05-05 13:24 | 24.97190 | -50.07264 | 40225 ft | 437 kts | 250° |
| 2026-05-05 13:24 | 24.94874 | -50.13477 | 40225 ft | 438 kts | 250° |
| 2026-05-05 13:25 | 24.92541 | -50.19698 | 40224 ft | 439 kts | 250° |
| 2026-05-05 13:25 | 24.90201 | -50.25878 | 40225 ft | 438 kts | 250° |
| 2026-05-05 13:26 | 24.87844 | -50.32077 | 40225 ft | 438 kts | 250° |
| 2026-05-05 13:26 | 24.85486 | -50.38266 | 40224 ft | 438 kts | 250° |
| 2026-05-05 13:27 | 24.83140 | -50.44419 | 40221 ft | 438 kts | 250° |
| 2026-05-05 13:27 | 24.80774 | -50.50616 | 40221 ft | 438 kts | 250° |
| 2026-05-05 13:28 | 24.78409 | -50.56802 | 40226 ft | 438 kts | 250° |
| 2026-05-05 13:28 | 24.76042 | -50.62982 | 40222 ft | 438 kts | 250° |
| 2026-05-05 13:29 | 24.73684 | -50.69132 | 40221 ft | 438 kts | 250° |
| 2026-05-05 13:29 | 24.71310 | -50.75314 | 40222 ft | 437 kts | 250° |
| 2026-05-05 13:30 | 24.68935 | -50.81490 | 40223 ft | 437 kts | 250° |
| 2026-05-05 13:30 | 24.66571 | -50.87627 | 40221 ft | 437 kts | 250° |
| 2026-05-05 13:31 | 24.64192 | -50.93794 | 40221 ft | 436 kts | 250° |
| 2026-05-05 13:31 | 24.61820 | -50.99935 | 40220 ft | 436 kts | 250° |
| 2026-05-05 13:32 | 24.59446 | -51.06075 | 40218 ft | 436 kts | 250° |
| 2026-05-05 13:32 | 24.57082 | -51.12177 | 40220 ft | 436 kts | 249° |
| 2026-05-05 13:33 | 24.54695 | -51.18331 | 40217 ft | 437 kts | 249° |
| 2026-05-05 13:33 | 24.52304 | -51.24487 | 40220 ft | 438 kts | 249° |
| 2026-05-05 13:34 | 24.49923 | -51.30606 | 40220 ft | 438 kts | 249° |
| 2026-05-05 13:34 | 24.47523 | -51.36767 | 40218 ft | 438 kts | 249° |
| 2026-05-05 13:35 | 24.45134 | -51.42890 | 40219 ft | 437 kts | 249° |
| 2026-05-05 13:35 | 24.42733 | -51.49036 | 40216 ft | 437 kts | 249° |
| 2026-05-05 13:36 | 24.40326 | -51.55188 | 40216 ft | 438 kts | 249° |
| 2026-05-05 13:36 | 24.37934 | -51.61297 | 40215 ft | 438 kts | 249° |
| 2026-05-05 13:37 | 24.35914 | -51.66444 | 40217 ft | 438 kts | 249° |
| 2026-05-05 13:37 | 24.33508 | -51.72570 | 40216 ft | 438 kts | 249° |
| 2026-05-05 13:38 | 24.31094 | -51.78706 | 40217 ft | 438 kts | 249° |
| 2026-05-05 13:38 | 24.28694 | -51.84799 | 40215 ft | 438 kts | 249° |
| 2026-05-05 13:39 | 24.26274 | -51.90935 | 40211 ft | 438 kts | 249° |
| 2026-05-05 13:39 | 24.23846 | -51.97082 | 40214 ft | 438 kts | 249° |
| 2026-05-05 13:40 | 24.21433 | -52.03184 | 40212 ft | 438 kts | 249° |
| 2026-05-05 13:40 | 24.18995 | -52.09339 | 40209 ft | 438 kts | 249° |
| 2026-05-05 13:41 | 24.16576 | -52.15436 | 40210 ft | 438 kts | 249° |
| 2026-05-05 13:41 | 24.14145 | -52.21558 | 40210 ft | 438 kts | 249° |
| 2026-05-05 13:42 | 24.11705 | -52.27693 | 40210 ft | 439 kts | 249° |
| 2026-05-05 13:42 | 24.09276 | -52.33792 | 40214 ft | 439 kts | 249° |
| 2026-05-05 13:43 | 24.06831 | -52.39920 | 40212 ft | 438 kts | 249° |
| 2026-05-05 13:43 | 24.04388 | -52.46038 | 40211 ft | 438 kts | 249° |
| 2026-05-05 13:44 | 24.01947 | -52.52140 | 40210 ft | 438 kts | 249° |
| 2026-05-05 13:44 | 23.99498 | -52.58257 | 40209 ft | 438 kts | 249° |
| 2026-05-05 13:45 | 23.97047 | -52.64367 | 40212 ft | 439 kts | 249° |
| 2026-05-05 13:45 | 23.94594 | -52.70477 | 40210 ft | 439 kts | 249° |
| 2026-05-05 13:46 | 23.92143 | -52.76571 | 40213 ft | 439 kts | 249° |
| 2026-05-05 13:46 | 23.89680 | -52.82688 | 40211 ft | 439 kts | 249° |
| 2026-05-05 13:47 | 23.87218 | -52.88794 | 40209 ft | 438 kts | 249° |
| 2026-05-05 13:47 | 23.84765 | -52.94868 | 40212 ft | 438 kts | 249° |
| 2026-05-05 13:48 | 23.82294 | -53.00981 | 40211 ft | 439 kts | 249° |
| 2026-05-05 13:48 | 23.79822 | -53.07087 | 40206 ft | 439 kts | 248° |
| 2026-05-05 13:49 | 23.77355 | -53.13171 | 40208 ft | 439 kts | 248° |
| 2026-05-05 13:49 | 23.74874 | -53.19282 | 40211 ft | 439 kts | 248° |
| 2026-05-05 13:50 | 23.72411 | -53.25341 | 40214 ft | 439 kts | 248° |
| 2026-05-05 13:50 | 23.69923 | -53.31455 | 40208 ft | 439 kts | 248° |
| 2026-05-05 13:51 | 23.67440 | -53.37545 | 40209 ft | 439 kts | 248° |
| 2026-05-05 13:51 | 23.64969 | -53.43600 | 40208 ft | 440 kts | 248° |
| 2026-05-05 13:52 | 23.62473 | -53.49707 | 40208 ft | 440 kts | 248° |
| 2026-05-05 13:52 | 23.59988 | -53.55779 | 40208 ft | 440 kts | 248° |
| 2026-05-05 13:53 | 23.57489 | -53.61879 | 40208 ft | 440 kts | 248° |
| 2026-05-05 13:53 | 23.54983 | -53.67985 | 40205 ft | 440 kts | 248° |
| 2026-05-05 13:54 | 23.52478 | -53.74081 | 40204 ft | 440 kts | 248° |
| 2026-05-05 13:54 | 23.49987 | -53.80137 | 40206 ft | 441 kts | 248° |
| 2026-05-05 13:55 | 23.47472 | -53.86241 | 40208 ft | 441 kts | 248° |
| 2026-05-05 13:55 | 23.44954 | -53.92346 | 40205 ft | 441 kts | 248° |
| 2026-05-05 13:56 | 23.42445 | -53.98420 | 40203 ft | 441 kts | 248° |
| 2026-05-05 13:56 | 23.39934 | -54.04491 | 40203 ft | 440 kts | 248° |
| 2026-05-05 13:57 | 23.37416 | -54.10571 | 40203 ft | 440 kts | 248° |
| 2026-05-05 13:57 | 23.34909 | -54.16615 | 40202 ft | 440 kts | 248° |
| 2026-05-05 13:58 | 23.32381 | -54.22704 | 40202 ft | 441 kts | 248° |
| 2026-05-05 13:58 | 23.29849 | -54.28794 | 40202 ft | 441 kts | 248° |
| 2026-05-05 13:59 | 23.26055 | -54.37903 | 40202 ft | 440 kts | 248° |
| 2026-05-05 14:00 | 23.22680 | -54.45994 | 40205 ft | 440 kts | 248° |
| 2026-05-05 14:00 | 23.19739 | -54.53031 | 40205 ft | 440 kts | 248° |
| 2026-05-05 14:01 | 23.17200 | -54.59099 | 40203 ft | 439 kts | 248° |
| 2026-05-05 14:01 | 23.14666 | -54.65147 | 40203 ft | 439 kts | 248° |
| 2026-05-05 14:02 | 23.12132 | -54.71186 | 40203 ft | 439 kts | 248° |
| 2026-05-05 14:02 | 23.09608 | -54.77195 | 40204 ft | 439 kts | 248° |
| 2026-05-05 14:03 | 23.07069 | -54.83229 | 40202 ft | 438 kts | 248° |
| 2026-05-05 14:03 | 23.04544 | -54.89225 | 40201 ft | 439 kts | 248° |
| 2026-05-05 14:04 | 23.01974 | -54.95325 | 40205 ft | 448 kts | 248° |
| 2026-05-05 14:04 | 22.99397 | -55.01515 | 40205 ft | 456 kts | 249° |
| 2026-05-05 14:05 | 22.96933 | -55.07928 | 40201 ft | 463 kts | 250° |
| 2026-05-05 14:05 | 22.94495 | -55.14434 | 40202 ft | 464 kts | 250° |
| 2026-05-05 14:06 | 22.92047 | -55.20919 | 40200 ft | 464 kts | 250° |
| 2026-05-05 14:06 | 22.89598 | -55.27355 | 40198 ft | 463 kts | 249° |
| 2026-05-05 14:07 | 22.87130 | -55.33821 | 40196 ft | 463 kts | 249° |
| 2026-05-05 14:07 | 22.84671 | -55.40251 | 40197 ft | 464 kts | 249° |
| 2026-05-05 14:08 | 22.82195 | -55.46718 | 40197 ft | 464 kts | 249° |
| 2026-05-05 14:08 | 22.79714 | -55.53190 | 40200 ft | 464 kts | 249° |
| 2026-05-05 14:09 | 22.77230 | -55.59661 | 40197 ft | 463 kts | 249° |
| 2026-05-05 14:09 | 22.74767 | -55.66069 | 40197 ft | 463 kts | 249° |
| 2026-05-05 14:10 | 22.72287 | -55.72511 | 40199 ft | 463 kts | 249° |
| 2026-05-05 14:10 | 22.69802 | -55.78959 | 40197 ft | 464 kts | 249° |
| 2026-05-05 14:11 | 22.67322 | -55.85384 | 40195 ft | 464 kts | 249° |
| 2026-05-05 14:11 | 22.64832 | -55.91826 | 40195 ft | 463 kts | 249° |
| 2026-05-05 14:12 | 22.62341 | -55.98261 | 40195 ft | 463 kts | 249° |
| 2026-05-05 14:12 | 22.59846 | -56.04696 | 40195 ft | 463 kts | 249° |
| 2026-05-05 14:13 | 22.57345 | -56.11140 | 40192 ft | 463 kts | 249° |
| 2026-05-05 14:13 | 22.54855 | -56.17546 | 40187 ft | 464 kts | 249° |
| 2026-05-05 14:14 | 22.52345 | -56.23994 | 40192 ft | 465 kts | 249° |
| 2026-05-05 14:14 | 22.50256 | -56.29353 | 40192 ft | 465 kts | 249° |
| 2026-05-05 14:15 | 22.47735 | -56.35813 | 40195 ft | 464 kts | 249° |
| 2026-05-05 14:15 | 22.45230 | -56.42222 | 40195 ft | 464 kts | 249° |
| 2026-05-05 14:16 | 22.42710 | -56.48663 | 40190 ft | 464 kts | 249° |
| 2026-05-05 14:16 | 22.40207 | -56.55052 | 40190 ft | 464 kts | 249° |
| 2026-05-05 14:17 | 22.37687 | -56.61473 | 40185 ft | 464 kts | 249° |
| 2026-05-05 14:17 | 22.35164 | -56.67895 | 40189 ft | 464 kts | 249° |
| 2026-05-05 14:18 | 22.32637 | -56.74318 | 40186 ft | 464 kts | 249° |
| 2026-05-05 14:18 | 22.30104 | -56.80747 | 40186 ft | 464 kts | 249° |
| 2026-05-05 14:19 | 22.27579 | -56.87145 | 40184 ft | 464 kts | 249° |
| 2026-05-05 14:19 | 22.25048 | -56.93553 | 40183 ft | 464 kts | 249° |
| 2026-05-05 14:20 | 22.22038 | -56.99738 | 40182 ft | 466 kts | 242° |
| 2026-05-05 14:20 | 22.18661 | -57.05712 | 40183 ft | 467 kts | 240° |
| 2026-05-05 14:21 | 22.15217 | -57.11617 | 40187 ft | 468 kts | 240° |
| 2026-05-05 14:21 | 22.11729 | -57.17590 | 40184 ft | 467 kts | 240° |
| 2026-05-05 14:22 | 22.08293 | -57.23496 | 40184 ft | 467 kts | 240° |
| 2026-05-05 14:22 | 22.04834 | -57.29448 | 40184 ft | 467 kts | 240° |
| 2026-05-05 14:23 | 22.01381 | -57.35388 | 40184 ft | 467 kts | 240° |
| 2026-05-05 14:23 | 21.97921 | -57.41330 | 40183 ft | 468 kts | 240° |
| 2026-05-05 14:24 | 21.94473 | -57.47246 | 40181 ft | 468 kts | 240° |
| 2026-05-05 14:24 | 21.90997 | -57.53201 | 40184 ft | 468 kts | 240° |
| 2026-05-05 14:25 | 21.87526 | -57.59142 | 40185 ft | 468 kts | 240° |
| 2026-05-05 14:25 | 21.84054 | -57.65079 | 40179 ft | 468 kts | 240° |
| 2026-05-05 14:26 | 21.80598 | -57.70980 | 40173 ft | 467 kts | 240° |
| 2026-05-05 14:26 | 21.77120 | -57.76915 | 40180 ft | 468 kts | 240° |
| 2026-05-05 14:27 | 21.73654 | -57.82821 | 40179 ft | 468 kts | 240° |
| 2026-05-05 14:27 | 21.70185 | -57.88726 | 40178 ft | 468 kts | 240° |
| 2026-05-05 14:28 | 21.66703 | -57.94646 | 40176 ft | 468 kts | 240° |
| 2026-05-05 14:28 | 21.63231 | -58.00545 | 40177 ft | 466 kts | 240° |
| 2026-05-05 14:29 | 21.59755 | -58.06442 | 40173 ft | 466 kts | 240° |
| 2026-05-05 14:29 | 21.56272 | -58.12346 | 40176 ft | 468 kts | 240° |
| 2026-05-05 14:30 | 21.52799 | -58.18228 | 40179 ft | 468 kts | 240° |
| 2026-05-05 14:30 | 21.49295 | -58.24153 | 40178 ft | 467 kts | 240° |
| 2026-05-05 14:31 | 21.45825 | -58.30014 | 40176 ft | 466 kts | 240° |
| 2026-05-05 14:31 | 21.42331 | -58.35911 | 40173 ft | 466 kts | 240° |
| 2026-05-05 14:32 | 21.38863 | -58.41758 | 40173 ft | 466 kts | 240° |
| 2026-05-05 14:32 | 21.35386 | -58.47615 | 40173 ft | 466 kts | 240° |
| 2026-05-05 14:33 | 21.31897 | -58.53484 | 40173 ft | 465 kts | 239° |
| 2026-05-05 14:33 | 21.28414 | -58.59337 | 40173 ft | 465 kts | 239° |
| 2026-05-05 14:34 | 21.24929 | -58.65187 | 40170 ft | 465 kts | 239° |
| 2026-05-05 14:34 | 21.21432 | -58.71052 | 40170 ft | 465 kts | 239° |
| 2026-05-05 14:35 | 21.17958 | -58.76873 | 40162 ft | 465 kts | 239° |
| 2026-05-05 14:35 | 21.14476 | -58.82700 | 40171 ft | 467 kts | 239° |
| 2026-05-05 14:36 | 21.10966 | -58.88568 | 40170 ft | 467 kts | 239° |
| 2026-05-05 14:36 | 21.07455 | -58.94431 | 40167 ft | 467 kts | 239° |
| 2026-05-05 14:37 | 21.03942 | -59.00292 | 40170 ft | 467 kts | 239° |
| 2026-05-05 14:37 | 21.00449 | -59.06112 | 40170 ft | 466 kts | 239° |
| 2026-05-05 14:38 | 20.96935 | -59.11962 | 40163 ft | 465 kts | 239° |
| 2026-05-05 14:38 | 20.93423 | -59.17804 | 40171 ft | 467 kts | 239° |
| 2026-05-05 14:39 | 20.89913 | -59.23634 | 40167 ft | 467 kts | 239° |
| 2026-05-05 14:39 | 20.86386 | -59.29488 | 40164 ft | 467 kts | 239° |
| 2026-05-05 14:40 | 20.82864 | -59.35327 | 40165 ft | 466 kts | 239° |
| 2026-05-05 14:40 | 20.79369 | -59.41115 | 40164 ft | 466 kts | 239° |
| 2026-05-05 14:41 | 20.75842 | -59.46951 | 40168 ft | 465 kts | 239° |
| 2026-05-05 14:41 | 20.72318 | -59.52776 | 40162 ft | 467 kts | 239° |
| 2026-05-05 14:42 | 20.68805 | -59.58577 | 40162 ft | 468 kts | 239° |
| 2026-05-05 14:42 | 20.65272 | -59.64405 | 40162 ft | 467 kts | 239° |
| 2026-05-05 14:43 | 20.61745 | -59.70215 | 40165 ft | 466 kts | 239° |
| 2026-05-05 14:43 | 20.58217 | -59.76023 | 40165 ft | 466 kts | 239° |
| 2026-05-05 14:44 | 20.54690 | -59.81824 | 40162 ft | 466 kts | 239° |
| 2026-05-05 14:44 | 20.51156 | -59.87630 | 40162 ft | 468 kts | 239° |
| 2026-05-05 14:45 | 20.47606 | -59.93456 | 40159 ft | 468 kts | 239° |
| 2026-05-05 14:45 | 20.44061 | -59.99267 | 40159 ft | 467 kts | 239° |
| 2026-05-05 14:46 | 20.40516 | -60.05074 | 40159 ft | 467 kts | 239° |
| 2026-05-05 14:46 | 20.36980 | -60.10860 | 40159 ft | 467 kts | 239° |
| 2026-05-05 14:47 | 20.33426 | -60.16668 | 40162 ft | 467 kts | 239° |
| 2026-05-05 14:47 | 20.29875 | -60.22467 | 40155 ft | 467 kts | 238° |
| 2026-05-05 14:48 | 20.26315 | -60.28274 | 40156 ft | 469 kts | 238° |
| 2026-05-05 14:48 | 20.22742 | -60.34097 | 40154 ft | 469 kts | 238° |
| 2026-05-05 14:49 | 20.19169 | -60.39914 | 40156 ft | 469 kts | 238° |
| 2026-05-05 14:49 | 20.15600 | -60.45719 | 40157 ft | 469 kts | 238° |
| 2026-05-05 14:50 | 20.12031 | -60.51517 | 40156 ft | 468 kts | 238° |
| 2026-05-05 14:50 | 20.08467 | -60.57303 | 40149 ft | 467 kts | 238° |
| 2026-05-05 14:51 | 20.04894 | -60.63098 | 40156 ft | 469 kts | 238° |
| 2026-05-05 14:51 | 20.01328 | -60.68876 | 40156 ft | 469 kts | 238° |
| 2026-05-05 14:52 | 19.97733 | -60.74693 | 40157 ft | 469 kts | 238° |
| 2026-05-05 14:52 | 19.94748 | -60.79520 | 40155 ft | 469 kts | 238° |
| 2026-05-05 14:53 | 19.90576 | -60.86260 | 40155 ft | 468 kts | 238° |
| 2026-05-05 14:53 | 19.87584 | -60.91087 | 40154 ft | 468 kts | 238° |
| 2026-05-05 14:54 | 19.84000 | -60.96868 | 40154 ft | 470 kts | 238° |
| 2026-05-05 14:54 | 19.80394 | -61.02677 | 40152 ft | 470 kts | 238° |
| 2026-05-05 14:55 | 19.76789 | -61.08477 | 40148 ft | 470 kts | 238° |
| 2026-05-05 14:55 | 19.73189 | -61.14266 | 40148 ft | 469 kts | 238° |
| 2026-05-05 14:56 | 19.69589 | -61.20048 | 40149 ft | 469 kts | 238° |
| 2026-05-05 14:56 | 19.66000 | -61.25806 | 40149 ft | 469 kts | 238° |
| 2026-05-05 14:57 | 19.62387 | -61.31599 | 40142 ft | 469 kts | 238° |
| 2026-05-05 14:57 | 19.58766 | -61.37398 | 40145 ft | 471 kts | 238° |
| 2026-05-05 14:58 | 19.55171 | -61.43149 | 39936 ft | 465 kts | 238° |
| 2026-05-05 14:58 | 19.53388 | -61.45997 | 39583 ft | 461 kts | 238° |
| 2026-05-05 14:58 | 19.51613 | -61.48833 | 39129 ft | 463 kts | 238° |
| 2026-05-05 14:59 | 19.49826 | -61.51690 | 38518 ft | 466 kts | 238° |
| 2026-05-05 14:59 | 19.48050 | -61.54528 | 37924 ft | 467 kts | 238° |
| 2026-05-05 14:59 | 19.46241 | -61.57416 | 37364 ft | 469 kts | 238° |
| 2026-05-05 14:59 | 19.44434 | -61.60300 | 36793 ft | 471 kts | 238° |
| 2026-05-05 15:00 | 19.42612 | -61.63203 | 36196 ft | 473 kts | 238° |
| 2026-05-05 15:00 | 19.41406 | -61.65127 | 35768 ft | 473 kts | 238° |
| 2026-05-05 15:00 | 19.38959 | -61.69025 | 34872 ft | 475 kts | 238° |
| 2026-05-05 15:00 | 19.37120 | -61.71952 | 34179 ft | 478 kts | 238° |
| 2026-05-05 15:01 | 19.35266 | -61.74891 | 33395 ft | 483 kts | 236° |
| 2026-05-05 15:01 | 19.33101 | -61.77646 | 32640 ft | 490 kts | 228° |
| 2026-05-05 15:01 | 19.30777 | -61.80240 | 32031 ft | 492 kts | 226° |
| 2026-05-05 15:01 | 19.28361 | -61.82832 | 31521 ft | 496 kts | 226° |
| 2026-05-05 15:02 | 19.25901 | -61.85414 | 31011 ft | 498 kts | 225° |
| 2026-05-05 15:02 | 19.23405 | -61.88010 | 30461 ft | 500 kts | 224° |
| 2026-05-05 15:02 | 19.20909 | -61.90598 | 29862 ft | 503 kts | 224° |
| 2026-05-05 15:02 | 19.18435 | -61.93165 | 29205 ft | 505 kts | 224° |
| 2026-05-05 15:03 | 19.15940 | -61.95760 | 28770 ft | 495 kts | 224° |
| 2026-05-05 15:03 | 19.13534 | -61.98264 | 28421 ft | 471 kts | 224° |
| 2026-05-05 15:03 | 19.11236 | -62.00657 | 28067 ft | 458 kts | 223° |
| 2026-05-05 15:03 | 19.09013 | -62.02975 | 27823 ft | 447 kts | 224° |
| 2026-05-05 15:04 | 19.06830 | -62.05258 | 27562 ft | 436 kts | 224° |
| 2026-05-05 15:04 | 19.04772 | -62.07557 | 27314 ft | 428 kts | 228° |
| 2026-05-05 15:04 | 19.02860 | -62.09981 | 27074 ft | 426 kts | 229° |
| 2026-05-05 15:04 | 19.00984 | -62.12415 | 26832 ft | 425 kts | 230° |
| 2026-05-05 15:05 | 18.97302 | -62.17299 | 26345 ft | 421 kts | 230° |
| 2026-05-05 15:05 | 18.95489 | -62.19724 | 26130 ft | 420 kts | 230° |
| 2026-05-05 15:05 | 18.93705 | -62.22116 | 25866 ft | 416 kts | 230° |
| 2026-05-05 15:06 | 18.91915 | -62.24511 | 25459 ft | 411 kts | 231° |
| 2026-05-05 15:06 | 18.90143 | -62.26879 | 24945 ft | 409 kts | 230° |
| 2026-05-05 15:06 | 18.88371 | -62.29244 | 24372 ft | 409 kts | 230° |
| 2026-05-05 15:06 | 18.86633 | -62.31560 | 23866 ft | 407 kts | 230° |
| 2026-05-05 15:07 | 18.84879 | -62.33896 | 23313 ft | 404 kts | 230° |
| 2026-05-05 15:07 | 18.83139 | -62.36211 | 22793 ft | 400 kts | 230° |
| 2026-05-05 15:07 | 18.81416 | -62.38502 | 22291 ft | 396 kts | 231° |
| 2026-05-05 15:07 | 18.79715 | -62.40763 | 21822 ft | 391 kts | 231° |
| 2026-05-05 15:08 | 18.78022 | -62.43012 | 21313 ft | 387 kts | 232° |
| 2026-05-05 15:08 | 18.76348 | -62.45236 | 20836 ft | 384 kts | 232° |
| 2026-05-05 15:08 | 18.74694 | -62.47432 | 20344 ft | 380 kts | 232° |
| 2026-05-05 15:08 | 18.73054 | -62.49610 | 19875 ft | 377 kts | 233° |
| 2026-05-05 15:09 | 18.71426 | -62.51772 | 19412 ft | 375 kts | 233° |
| 2026-05-05 15:09 | 18.69827 | -62.53894 | 18955 ft | 373 kts | 233° |
| 2026-05-05 15:09 | 18.68214 | -62.56035 | 18486 ft | 372 kts | 234° |
| 2026-05-05 15:09 | 18.66607 | -62.58169 | 17962 ft | 370 kts | 234° |
| 2026-05-05 15:10 | 18.65014 | -62.60282 | 17474 ft | 366 kts | 234° |
| 2026-05-05 15:10 | 18.63434 | -62.62379 | 16997 ft | 363 kts | 234° |
| 2026-05-05 15:10 | 18.61867 | -62.64455 | 16547 ft | 361 kts | 235° |
| 2026-05-05 15:10 | 18.60306 | -62.66524 | 16079 ft | 358 kts | 233° |
| 2026-05-05 15:11 | 18.58758 | -62.68575 | 15586 ft | 357 kts | 233° |
| 2026-05-05 15:11 | 18.57216 | -62.70618 | 15129 ft | 355 kts | 232° |
| 2026-05-05 15:11 | 18.55682 | -62.72649 | 14659 ft | 353 kts | 232° |
| 2026-05-05 15:11 | 18.54155 | -62.74669 | 14209 ft | 351 kts | 232° |
| 2026-05-05 15:12 | 18.52631 | -62.76687 | 13712 ft | 349 kts | 232° |
| 2026-05-05 15:12 | 18.51143 | -62.78654 | 13229 ft | 346 kts | 232° |
| 2026-05-05 15:12 | 18.49646 | -62.80634 | 12785 ft | 343 kts | 232° |
| 2026-05-05 15:12 | 18.48161 | -62.82596 | 12340 ft | 340 kts | 232° |
| 2026-05-05 15:13 | 18.46691 | -62.84538 | 11898 ft | 337 kts | 231° |
| 2026-05-05 15:13 | 18.45226 | -62.86472 | 11450 ft | 335 kts | 231° |
| 2026-05-05 15:13 | 18.43789 | -62.88370 | 11112 ft | 330 kts | 231° |
| 2026-05-05 15:13 | 18.42389 | -62.90217 | 11014 ft | 314 kts | 231° |
| 2026-05-05 15:14 | 18.41053 | -62.91981 | 10901 ft | 301 kts | 231° |
| 2026-05-05 15:14 | 18.39761 | -62.93684 | 10776 ft | 291 kts | 231° |
| 2026-05-05 15:14 | 18.38524 | -62.95317 | 10498 ft | 288 kts | 231° |
| 2026-05-05 15:14 | 18.37268 | -62.96973 | 10140 ft | 290 kts | 231° |
| 2026-05-05 15:15 | 18.36009 | -62.98633 | 9802 ft | 289 kts | 231° |
| 2026-05-05 15:15 | 18.34755 | -63.00284 | 9485 ft | 288 kts | 231° |
| 2026-05-05 15:15 | 18.33500 | -63.01939 | 9041 ft | 290 kts | 230° |
| 2026-05-05 15:15 | 18.32241 | -63.03598 | 8672 ft | 289 kts | 230° |
| 2026-05-05 15:16 | 18.30990 | -63.05246 | 8322 ft | 287 kts | 229° |
| 2026-05-05 15:16 | 18.29748 | -63.06882 | 7978 ft | 286 kts | 229° |
| 2026-05-05 15:16 | 18.28510 | -63.08511 | 7641 ft | 285 kts | 229° |
| 2026-05-05 15:16 | 18.27269 | -63.10147 | 7275 ft | 286 kts | 228° |
| 2026-05-05 15:17 | 18.26030 | -63.11780 | 6930 ft | 284 kts | 228° |
| 2026-05-05 15:17 | 18.24797 | -63.13400 | 6594 ft | 283 kts | 229° |
| 2026-05-05 15:17 | 18.23580 | -63.14999 | 6236 ft | 282 kts | 228° |
| 2026-05-05 15:17 | 18.22357 | -63.16605 | 5884 ft | 281 kts | 228° |
| 2026-05-05 15:18 | 18.21139 | -63.18204 | 5528 ft | 279 kts | 227° |
| 2026-05-05 15:18 | 18.19930 | -63.19791 | 5184 ft | 277 kts | 228° |
| 2026-05-05 15:18 | 18.18728 | -63.21374 | 4864 ft | 275 kts | 228° |
| 2026-05-05 15:18 | 18.17557 | -63.22917 | 4704 ft | 264 kts | 227° |
| 2026-05-05 15:19 | 18.16441 | -63.24390 | 4457 ft | 251 kts | 227° |
| 2026-05-05 15:19 | 18.15374 | -63.25794 | 4182 ft | 242 kts | 227° |
| 2026-05-05 15:19 | 18.14318 | -63.27178 | 3942 ft | 242 kts | 227° |
| 2026-05-05 15:19 | 18.13272 | -63.28545 | 3705 ft | 241 kts | 226° |
| 2026-05-05 15:20 | 18.12083 | -63.29763 | 3456 ft | 237 kts | 210° |
| 2026-05-05 15:20 | 18.10621 | -63.30494 | 3207 ft | 229 kts | 187° |
| 2026-05-05 15:20 | 18.09061 | -63.30578 | 2972 ft | 222 kts | 172° |
| 2026-05-05 15:20 | 18.07548 | -63.30420 | 2721 ft | 220 kts | 168° |
| 2026-05-05 15:21 | 18.06053 | -63.30209 | 2617 ft | 210 kts | 167° |
| 2026-05-05 15:21 | 18.04668 | -63.29968 | 2596 ft | 192 kts | 162° |
| 2026-05-05 15:21 | 18.03493 | -63.29466 | 2583 ft | 176 kts | 145° |
| 2026-05-05 15:21 | 18.02600 | -63.28629 | 2593 ft | 171 kts | 127° |
| 2026-05-05 15:22 | 18.02050 | -63.27542 | 2589 ft | 170 kts | 108° |
| 2026-05-05 15:22 | 18.01887 | -63.26312 | 2590 ft | 171 kts | 91° |
| 2026-05-05 15:22 | 18.02006 | -63.25082 | 2473 ft | 171 kts | 84° |
| 2026-05-05 15:22 | 18.02196 | -63.23833 | 2260 ft | 171 kts | 83° |
| 2026-05-05 15:23 | 18.02389 | -63.22618 | 2003 ft | 164 kts | 84° |
| 2026-05-05 15:23 | 18.02567 | -63.21474 | 1751 ft | 153 kts | 85° |
| 2026-05-05 15:23 | 18.02728 | -63.20415 | 1557 ft | 142 kts | 85° |
| 2026-05-05 15:23 | 18.02874 | -63.19421 | 1424 ft | 134 kts | 84° |
| 2026-05-05 15:24 | 18.03012 | -63.18478 | 1228 ft | 127 kts | 85° |
| 2026-05-05 15:24 | 18.03139 | -63.17580 | 1096 ft | 122 kts | 85° |
| 2026-05-05 15:24 | 18.03265 | -63.16688 | 967 ft | 125 kts | 86° |
| 2026-05-05 15:24 | 18.03390 | -63.15796 | 724 ft | 124 kts | 84° |
| 2026-05-05 15:25 | 18.03511 | -63.14910 | 562 ft | 120 kts | 82° |
| 2026-05-05 15:25 | 18.03648 | -63.14069 | 347 ft | 114 kts | 82° |
| 2026-05-05 15:25 | 18.03768 | -63.13227 | 313 ft | 121 kts | 83° |
| 2026-05-05 15:25 | 18.03891 | -63.12349 | 115 ft | 120 kts | 83° |
| 2026-05-05 15:26 | 18.04011 | -63.11501 | 25 ft | 109 kts | 83° |
| 2026-05-05 15:26 | 18.04090 | -63.10930 | 25 ft | 57 kts | 81° |
| 2026-05-05 15:26 | 18.04163 | -63.10402 | 26 ft | 117 kts | 82° |
| 2026-05-05 15:26 | 18.04313 | -63.09333 | 385 ft | 169 kts | 83° |
| 2026-05-05 15:27 | 18.04474 | -63.08086 | 1653 ft | 177 kts | 86° |
| 2026-05-05 15:27 | 18.04670 | -63.06815 | 2832 ft | 171 kts | 83° |
| 2026-05-05 15:27 | 18.04875 | -63.05569 | 3603 ft | 183 kts | 84° |
| 2026-05-05 15:27 | 18.05107 | -63.04121 | 3693 ft | 214 kts | 83° |
| 2026-05-05 15:28 | 18.05355 | -63.02550 | 3675 ft | 222 kts | 82° |
| 2026-05-05 15:28 | 18.05975 | -63.01060 | 3649 ft | 228 kts | 53° |
| 2026-05-05 15:28 | 18.07294 | -63.00108 | 3646 ft | 238 kts | 22° |
| 2026-05-05 15:28 | 18.08958 | -62.99997 | 3645 ft | 246 kts | 351° |
| 2026-05-05 15:29 | 18.10492 | -63.00789 | 3640 ft | 249 kts | 319° |
| 2026-05-05 15:29 | 18.11460 | -63.02275 | 3646 ft | 249 kts | 288° |
| 2026-05-05 15:29 | 18.11851 | -63.04035 | 3643 ft | 247 kts | 277° |
| 2026-05-05 15:29 | 18.12093 | -63.05845 | 3425 ft | 250 kts | 276° |
| 2026-05-05 15:30 | 18.12280 | -63.07663 | 3338 ft | 250 kts | 270° |
| 2026-05-05 15:30 | 18.12279 | -63.09494 | 3271 ft | 250 kts | 266° |
| 2026-05-05 15:30 | 18.12222 | -63.11309 | 3125 ft | 247 kts | 265° |
| 2026-05-05 15:30 | 18.12182 | -63.12502 | 3046 ft | 247 kts | 265° |
| 2026-05-05 15:31 | 18.12129 | -63.14313 | 2997 ft | 248 kts | 265° |
| 2026-05-05 15:31 | 18.12058 | -63.16725 | 2988 ft | 247 kts | 265° |
| 2026-05-05 15:31 | 18.12021 | -63.17944 | 2990 ft | 245 kts | 265° |
| 2026-05-05 15:31 | 18.11969 | -63.19719 | 2991 ft | 247 kts | 265° |
| 2026-05-05 15:32 | 18.11925 | -63.21477 | 2994 ft | 234 kts | 266° |
| 2026-05-05 15:32 | 18.11934 | -63.23156 | 3012 ft | 228 kts | 272° |
| 2026-05-05 15:32 | 18.11867 | -63.24787 | 2979 ft | 216 kts | 246° |
| 2026-05-05 15:32 | 18.11040 | -63.25935 | 2974 ft | 184 kts | 210° |
| 2026-05-05 15:33 | 18.09972 | -63.26547 | 2989 ft | 169 kts | 195° |
| 2026-05-05 15:33 | 18.08864 | -63.26921 | 2991 ft | 165 kts | 189° |
| 2026-05-05 15:33 | 18.07752 | -63.26978 | 2850 ft | 162 kts | 158° |
| 2026-05-05 15:33 | 18.06950 | -63.26070 | 1971 ft | 196 kts | 114° |
| 2026-05-05 15:34 | 18.06420 | -63.24797 | 2076 ft | 180 kts | 110° |
| 2026-05-05 15:34 | 18.06012 | -63.23612 | 2266 ft | 162 kts | 110° |
| 2026-05-05 15:34 | 18.05683 | -63.22505 | 2329 ft | 157 kts | 106° |
| 2026-05-05 15:34 | 18.05410 | -63.21384 | 2278 ft | 164 kts | 107° |
| 2026-05-05 15:35 | 18.04969 | -63.20204 | 2106 ft | 184 kts | 115° |
| 2026-05-05 15:35 | 18.04356 | -63.18949 | 1853 ft | 203 kts | 121° |
| 2026-05-05 15:35 | 18.03624 | -63.17618 | 1483 ft | 211 kts | 111° |
| 2026-05-05 15:35 | 18.03345 | -63.16096 | 959 ft | 220 kts | 90° |
| 2026-05-05 15:36 | 18.03605 | -63.14492 | 533 ft | 220 kts | 84° |
| 2026-05-05 15:36 | 18.03809 | -63.12920 | 352 ft | 207 kts | 82° |
| 2026-05-05 15:36 | 18.04023 | -63.11431 | 37 ft | 206 kts | 82° |
| 2026-05-05 15:36 | 18.04205 | -63.10093 | 26 ft | 145 kts | 78° |
| 2026-05-05 15:37 | 18.04086 | -63.11010 | 28 ft | 0 kts | 82° |
| 2026-05-05 15:37 | 18.04091 | -63.11004 | 26 ft | 1 kts | 39° |
| 2026-05-05 15:37 | 18.04102 | -63.11002 | 30 ft | 2 kts | 11° |
| 2026-05-05 15:38 | 18.04118 | -63.11001 | 30 ft | 2 kts | 359° |
| 2026-05-05 15:38 | 18.04146 | -63.11003 | 30 ft | 8 kts | 355° |
| 2026-05-05 15:38 | 18.04167 | -63.11048 | 29 ft | 8 kts | 259° |
| 2026-05-05 15:38 | 18.04163 | -63.11071 | 28 ft | 8 kts | 258° |
| 2026-05-05 15:39 | 18.04151 | -63.11138 | 27 ft | 7 kts | 263° |
| 2026-05-05 15:39 | 18.04146 | -63.11185 | 25 ft | 7 kts | 263° |
| 2026-05-05 15:39 | 18.04140 | -63.11236 | 30 ft | 8 kts | 263° |
| 2026-05-05 15:39 | 18.04141 | -63.11290 | 27 ft | 8 kts | 338° |
| 2026-05-05 15:40 | 18.04174 | -63.11303 | 29 ft | 8 kts | 338° |
| 2026-05-05 15:40 | 18.04221 | -63.11331 | 27 ft | 8 kts | 330° |
| 2026-05-05 15:40 | 18.04271 | -63.11352 | 28 ft | 8 kts | 349° |
| 2026-05-05 15:40 | 18.04311 | -63.11359 | 25 ft | 4 kts | 351° |
| 2026-05-05 15:41 | 18.04317 | -63.11360 | 26 ft | 0 kts | 351° |